Time;durP1;ratioP1;P1;durP2;ratioP2;P2;SDS_P1;SDS_P2;PMS_P1;PMS_P2;Temp;Humidity;BMP_temperature;BMP_pressure;BME280_temperature;BME280_humidity;BME280_pressure;Samples;Min_cycle;Max_cycle;Signal;HPM_P1;HPM_P2
2022/04/27 00:00:30;;;;;;;21.10;19.07;;;;;;;7.77;100.00;96993.81;5032741;28;20672;-67
2022/04/27 00:02:56;;;;;;;21.10;19.03;;;;;;;7.70;100.00;96998.25;5032372;28;20269;-69
2022/04/27 00:05:22;;;;;;;19.90;17.90;;;;;;;7.88;100.00;96995.81;5032189;28;20194;-68
2022/04/27 00:07:48;;;;;;;20.03;17.80;;;;;;;7.74;100.00;96991.63;5032725;28;20530;-68
2022/04/27 00:10:14;;;;;;;17.80;15.90;;;;;;;7.79;100.00;96991.81;5032338;28;20201;-67
2022/04/27 00:12:40;;;;;;;17.80;15.87;;;;;;;7.81;100.00;96995.81;5031353;28;20229;-67
2022/04/27 00:15:07;;;;;;;19.70;16.00;;;;;;;7.91;100.00;97008.47;5014743;28;20229;-68
2022/04/27 00:17:33;;;;;;;20.80;17.10;;;;;;;7.73;100.00;96993.44;5032452;28;20170;-68
2022/04/27 00:19:58;;;;;;;19.10;15.60;;;;;;;7.74;100.00;96997.66;5032388;28;20637;-68
2022/04/27 00:22:24;;;;;;;20.97;17.03;;;;;;;7.83;100.00;96995.63;5032185;28;20190;-68
2022/04/27 00:24:49;;;;;;;19.00;15.97;;;;;;;7.83;100.00;96996.44;5032811;28;20531;-67
2022/04/27 00:27:15;;;;;;;20.50;17.60;;;;;;;7.84;100.00;96992.81;5032269;28;20190;-68
2022/04/27 00:29:40;;;;;;;19.07;16.07;;;;;;;7.91;100.00;96987.59;5032040;28;20685;-68
2022/04/27 00:32:06;;;;;;;19.33;16.80;;;;;;;7.96;100.00;96989.59;5032235;28;20692;-68
2022/04/27 00:34:31;;;;;;;19.07;16.30;;;;;;;7.89;100.00;96995.63;5014128;28;20213;-68
2022/04/27 00:36:57;;;;;;;19.40;16.83;;;;;;;7.89;100.00;96993.00;5032535;28;20652;-68
2022/04/27 00:39:22;;;;;;;18.37;15.10;;;;;;;7.91;100.00;96993.59;5031723;28;20206;-68
2022/04/27 00:42:00;;;;;;;17.33;14.97;;;;;;;7.71;100.00;96997.25;5031923;28;20187;-68
2022/04/27 00:44:30;;;;;;;18.30;14.73;;;;;;;7.73;100.00;97001.28;5031901;28;20187;-68
2022/04/27 00:46:56;;;;;;;18.47;15.67;;;;;;;7.82;100.00;96992.22;5031861;28;20187;-69
2022/04/27 00:49:21;;;;;;;19.77;16.33;;;;;;;7.91;100.00;97001.41;5031218;28;20260;-67
2022/04/27 00:51:48;;;;;;;17.27;14.60;;;;;;;7.94;100.00;96995.00;5031855;28;20225;-69
2022/04/27 00:54:14;;;;;;;19.37;15.07;;;;;;;7.93;100.00;96998.59;5014169;28;20219;-69
2022/04/27 00:56:40;;;;;;;19.70;15.33;;;;;;;7.81;100.00;97001.03;5032249;28;20615;-67
2022/04/27 00:59:06;;;;;;;18.83;15.77;;;;;;;7.85;100.00;97002.25;5031379;28;20191;-72
2022/04/27 01:01:33;;;;;;;20.17;15.37;;;;;;;7.81;100.00;96997.63;5034496;28;20266;-69
2022/04/27 01:03:58;;;;;;;20.80;16.47;;;;;;;7.81;100.00;96995.00;5035152;28;20218;-67
2022/04/27 01:06:24;;;;;;;21.87;15.80;;;;;;;7.88;100.00;97001.03;5035038;28;20233;-67
2022/04/27 01:08:50;;;;;;;21.37;16.83;;;;;;;7.89;100.00;97011.28;5017732;28;20186;-68
2022/04/27 01:11:16;;;;;;;19.47;16.33;;;;;;;7.93;100.00;97014.28;5035016;28;20190;-67
2022/04/27 01:13:41;;;;;;;20.53;16.97;;;;;;;7.93;100.00;97014.28;5035251;28;20196;-68
2022/04/27 01:16:07;;;;;;;21.60;17.20;;;;;;;7.91;100.00;97017.06;5034996;28;20225;-68
2022/04/27 01:18:33;;;;;;;23.97;17.63;;;;;;;7.91;100.00;97022.28;5035365;28;20187;-68
2022/04/27 01:20:59;;;;;;;22.60;17.00;;;;;;;8.03;100.00;97019.06;5035285;28;20653;-68
2022/04/27 01:23:24;;;;;;;21.83;17.27;;;;;;;7.96;100.00;97015.69;5034531;28;20187;-69
2022/04/27 01:25:54;;;;;;;21.73;17.30;;;;;;;7.91;100.00;97022.28;5034938;28;20178;-68
2022/04/27 01:28:25;;;;;;;23.90;17.90;;;;;;;8.07;100.00;97021.06;5017240;28;20191;-68
2022/04/27 01:30:58;;;;;;;21.73;17.50;;;;;;;8.07;100.00;97021.06;5034796;28;20194;-67
2022/04/27 01:33:24;;;;;;;23.50;17.70;;;;;;;7.96;100.00;97020.91;5034995;28;20205;-68
2022/04/27 01:35:50;;;;;;;23.03;17.73;;;;;;;7.82;100.00;97023.53;5034734;28;20673;-68
2022/04/27 01:38:18;;;;;;;23.77;17.77;;;;;;;7.96;100.00;97024.31;5034956;28;20183;-68
2022/04/27 01:40:47;;;;;;;22.70;18.43;;;;;;;7.94;100.00;97021.91;5017339;28;20281;-68
2022/04/27 01:43:15;;;;;;;21.30;16.87;;;;;;;8.08;100.00;97027.09;5034754;28;20210;-68
2022/04/27 01:45:42;;;;;;;22.27;18.07;;;;;;;8.16;100.00;97026.88;5034540;28;20187;-68
2022/04/27 01:48:08;;;;;;;24.00;17.03;;;;;;;8.19;100.00;97027.25;5034564;28;20637;-68
2022/04/27 01:50:33;;;;;;;21.70;17.17;;;;;;;8.27;100.00;97021.00;5034935;28;20187;-68
2022/04/27 01:55:42;;;;;;;21.67;17.83;;;;;;;8.24;100.00;97018.81;5034363;28;20229;-68
2022/04/27 01:58:08;;;;;;;21.40;17.23;;;;;;;8.18;100.00;97030.88;5034704;28;20587;-68
2022/04/27 02:00:33;;;;;;;22.67;17.47;;;;;;;8.22;100.00;97033.88;5034370;28;20270;-67
2022/04/27 02:02:59;;;;;;;23.67;19.30;;;;;;;8.16;100.00;97032.91;5016543;28;20187;-70
2022/04/27 02:05:24;;;;;;;22.90;17.80;;;;;;;8.16;100.00;97030.28;5034270;28;20535;-68
2022/04/27 02:07:50;;;;;;;23.17;18.20;;;;;;;8.32;100.00;97021.22;5034272;28;20198;-69
2022/04/27 02:10:15;;;;;;;25.07;19.77;;;;;;;8.21;100.00;97032.28;5034605;28;20664;-69
2022/04/27 02:12:41;;;;;;;25.83;19.27;;;;;;;8.19;100.00;97026.47;5033515;28;20226;-68
2022/04/27 02:15:09;;;;;;;25.50;20.30;;;;;;;8.11;100.00;97026.69;5033922;28;20286;-69
2022/04/27 02:17:35;;;;;;;24.27;19.07;;;;;;;8.18;100.00;97036.13;5017957;28;20191;-68
2022/04/27 02:20:00;;;;;;;25.70;19.37;;;;;;;8.09;100.00;97026.06;5034319;28;20182;-68
2022/04/27 02:22:26;;;;;;;29.93;20.43;;;;;;;8.26;100.00;97035.06;5016543;28;20336;-68
2022/04/27 02:24:51;;;;;;;24.67;19.53;;;;;;;8.06;100.00;97032.53;5034379;28;20601;-68
2022/04/27 02:27:17;;;;;;;25.23;20.17;;;;;;;8.07;100.00;97034.13;5033702;28;20681;-67
2022/04/27 02:29:42;;;;;;;27.53;20.40;;;;;;;8.34;100.00;97032.28;5034024;28;20181;-69
2022/04/27 02:32:08;;;;;;;28.80;21.17;;;;;;;8.32;100.00;97039.50;5033448;28;20557;-68
2022/04/27 02:34:33;;;;;;;29.67;21.43;;;;;;;8.28;100.00;97033.88;5033756;28;20285;-68
2022/04/27 02:36:58;;;;;;;30.60;20.43;;;;;;;8.06;100.00;97039.53;5033615;28;20695;-67
2022/04/27 02:39:24;;;;;;;27.00;20.53;;;;;;;8.19;100.00;97045.53;5033661;28;20553;-68
2022/04/27 02:41:49;;;;;;;29.00;22.03;;;;;;;8.22;100.00;97046.94;5033744;28;20191;-68
2022/04/27 02:44:15;;;;;;;29.83;21.33;;;;;;;8.23;100.00;97041.53;5033453;28;20182;-67
2022/04/27 02:46:41;;;;;;;28.23;22.20;;;;;;;8.20;100.00;97041.09;5015717;28;20229;-68
2022/04/27 02:51:53;;;;;;;30.97;22.47;;;;;;;8.39;100.00;97047.31;5033654;28;20256;-67
2022/04/27 02:54:21;;;;;;;31.77;22.27;;;;;;;8.13;100.00;97042.94;5033250;28;20222;-67
2022/04/27 02:56:48;;;;;;;30.27;21.97;;;;;;;8.22;100.00;97041.72;5015802;28;20233;-69
2022/04/27 02:59:13;;;;;;;28.93;19.97;;;;;;;8.23;100.00;97044.13;5033468;28;20231;-68
2022/04/27 03:01:39;;;;;;;29.27;21.07;;;;;;;8.13;100.00;97045.56;5033301;28;20586;-67
2022/04/27 03:04:05;;;;;;;32.33;21.83;;;;;;;8.28;100.00;97046.94;5032850;28;20230;-67
2022/04/27 03:06:31;;;;;;;28.07;20.50;;;;;;;8.23;100.00;97048.53;5015445;28;20213;-68
2022/04/27 03:08:56;;;;;;;31.37;21.23;;;;;;;8.28;100.00;97054.75;5033872;28;20642;-68
2022/04/27 03:11:21;;;;;;;28.43;20.83;;;;;;;8.42;100.00;97058.16;5033082;28;20319;-69
2022/04/27 03:13:46;;;;;;;30.33;21.83;;;;;;;8.47;100.00;97054.94;5033078;28;20221;-68
2022/04/27 03:16:12;;;;;;;30.50;21.27;;;;;;;8.32;100.00;97052.56;5033259;28;20186;-68
2022/04/27 03:18:38;;;;;;;29.00;20.67;;;;;;;8.21;100.00;97053.16;5032850;28;20745;-67
2022/04/27 03:21:03;;;;;;;29.03;22.03;;;;;;;8.23;100.00;97051.97;5032663;28;20664;-68
2022/04/27 03:23:28;;;;;;;28.83;22.00;;;;;;;8.30;100.00;97054.59;5032180;28;20899;-68
2022/04/27 03:25:54;;;;;;;33.07;22.17;;;;;;;8.32;100.00;97049.94;5015358;28;20273;-68
2022/04/27 03:28:19;;;;;;;31.07;22.27;;;;;;;8.27;100.00;97052.34;5032837;28;20637;-68
2022/04/27 03:30:44;;;;;;;30.00;22.23;;;;;;;8.13;100.00;97058.63;5032661;28;20312;-67
2022/04/27 03:33:10;;;;;;;29.50;22.90;;;;;;;8.17;100.00;97062.41;5032320;28;20183;-71
2022/04/27 03:35:36;;;;;;;31.87;21.33;;;;;;;8.25;100.00;97056.97;5032523;28;20285;-68
2022/04/27 03:38:03;;;;;;;32.63;23.37;;;;;;;8.15;100.00;97061.81;5033099;28;20210;-68
2022/04/27 03:40:29;;;;;;;29.87;22.13;;;;;;;8.13;100.00;97064.66;5032980;28;20253;-67
2022/04/27 03:42:55;;;;;;;30.37;20.67;;;;;;;8.22;100.00;97063.41;5032756;28;20219;-68
2022/04/27 03:45:20;;;;;;;32.40;22.87;;;;;;;8.15;100.00;97059.19;5032783;28;20544;-68
2022/04/27 03:47:47;;;;;;;30.70;22.17;;;;;;;8.07;100.00;97068.06;5032293;28;20194;-69
2022/04/27 03:50:13;;;;;;;29.87;22.53;;;;;;;8.08;100.00;97068.88;5033106;28;20182;-68
2022/04/27 03:52:38;;;;;;;29.13;21.67;;;;;;;8.11;100.00;97071.06;5033089;28;20545;-68
2022/04/27 03:55:04;;;;;;;30.63;22.20;;;;;;;8.12;100.00;97070.06;5032285;28;20202;-68
2022/04/27 03:57:29;;;;;;;30.07;21.53;;;;;;;8.25;100.00;97078.66;5033253;28;20198;-68
2022/04/27 03:59:55;;;;;;;33.33;22.37;;;;;;;8.33;100.00;97077.66;5032711;28;20189;-67
2022/04/27 04:02:21;;;;;;;27.77;20.53;;;;;;;7.99;100.00;97077.91;5032695;28;20210;-68
2022/04/27 04:04:47;;;;;;;32.10;23.27;;;;;;;7.89;100.00;97079.13;5031345;28;20258;-68
2022/04/27 04:07:12;;;;;;;29.07;21.03;;;;;;;7.96;100.00;97081.72;5032516;28;20178;-67
2022/04/27 04:09:41;;;;;;;32.17;22.63;;;;;;;8.06;100.00;97082.13;5032420;28;20186;-67
2022/04/27 04:12:07;;;;;;;33.37;22.97;;;;;;;7.98;100.00;97078.91;5032535;28;20188;-68
2022/04/27 04:14:32;;;;;;;32.93;22.13;;;;;;;7.80;100.00;97084.75;5031760;28;20206;-68
2022/04/27 04:16:58;;;;;;;30.17;22.57;;;;;;;8.17;100.00;97088.53;5032088;28;20194;-69
2022/04/27 04:19:23;;;;;;;33.63;23.53;;;;;;;8.07;100.00;97088.94;5032590;28;20289;-68
2022/04/27 04:21:49;;;;;;;31.70;22.63;;;;;;;8.20;100.00;97094.13;5032623;28;20707;-68
2022/04/27 04:24:14;;;;;;;33.43;21.73;;;;;;;8.37;100.00;97091.13;5032325;28;20191;-68
2022/04/27 04:29:24;;;;;;;32.50;22.73;;;;;;;8.53;100.00;97096.69;5031823;28;20178;-68
2022/04/27 04:31:49;;;;;;;33.50;22.47;;;;;;;8.40;100.00;97099.34;5032571;28;20199;-68
2022/04/27 04:34:14;;;;;;;31.57;21.87;;;;;;;8.39;100.00;97099.56;5014472;28;20202;-68
2022/04/27 04:36:40;;;;;;;31.07;23.03;;;;;;;8.41;100.00;97106.19;5035801;28;20713;-67
2022/04/27 04:39:05;;;;;;;29.23;22.20;;;;;;;8.63;100.00;97104.94;5036516;28;20186;-67
2022/04/27 04:41:31;;;;;;;31.73;22.17;;;;;;;8.86;100.00;97116.69;5018562;28;20187;-68
2022/04/27 04:43:56;;;;;;;29.83;21.97;;;;;;;8.89;100.00;97119.69;5035819;28;20707;-69
2022/04/27 04:46:22;;;;;;;30.60;21.10;;;;;;;8.75;100.00;97125.97;5035761;28;20186;-67
2022/04/27 04:48:47;;;;;;;27.50;21.27;;;;;;;8.74;100.00;97129.59;5017363;28;20183;-68
2022/04/27 04:51:12;;;;;;;31.77;21.77;;;;;;;8.55;100.00;97133.06;5017832;28;20198;-67
2022/04/27 04:53:38;;;;;;;30.00;21.73;;;;;;;8.53;100.00;97130.66;5036007;28;20633;-67
2022/04/27 04:56:03;;;;;;;30.60;22.07;;;;;;;8.44;100.00;97133.69;5018171;28;20205;-67
2022/04/27 04:58:29;;;;;;;28.60;21.00;;;;;;;8.40;100.00;97150.78;5035889;28;20649;-68
2022/04/27 05:00:54;;;;;;;29.27;20.47;;;;;;;8.38;100.00;97140.53;5035066;28;20198;-68
2022/04/27 05:03:20;;;;;;;29.50;21.40;;;;;;;8.59;100.00;97144.69;5017314;28;20253;-68
2022/04/27 05:05:45;;;;;;;32.13;20.57;;;;;;;8.40;100.00;97143.75;5035943;28;20641;-67
2022/04/27 05:08:11;;;;;;;32.20;21.57;;;;;;;8.26;100.00;97148.16;5035844;28;20637;-69
2022/04/27 05:10:36;;;;;;;30.77;22.17;;;;;;;8.17;100.00;97144.16;5017930;28;20178;-67
2022/04/27 05:13:02;;;;;;;32.67;22.43;;;;;;;8.21;100.00;97150.56;5035667;28;20687;-67
2022/04/27 05:15:27;;;;;;;33.00;21.97;;;;;;;8.45;100.00;97154.41;5034801;28;20198;-68
2022/04/27 05:17:53;;;;;;;32.67;22.23;;;;;;;8.38;100.00;97158.00;5017867;28;20195;-67
2022/04/27 05:20:18;;;;;;;31.83;22.23;;;;;;;8.54;100.00;97157.59;5017989;28;20179;-68
2022/04/27 05:22:44;;;;;;;34.43;23.30;;;;;;;8.56;100.00;97158.19;5035484;28;20210;-67
2022/04/27 05:25:10;;;;;;;32.93;23.03;;;;;;;8.77;100.00;97156.13;5017450;28;20210;-68
2022/04/27 05:27:37;;;;;;;28.60;20.83;;;;;;;8.78;100.00;97159.53;5035437;28;20213;-67
2022/04/27 05:32:48;;;;;;;32.13;21.20;;;;;;;8.97;100.00;97174.34;5035311;28;20359;-67
2022/04/27 05:35:14;;;;;;;32.67;21.83;;;;;;;8.64;100.00;97176.25;5033628;28;20245;-68
2022/04/27 05:37:39;;;;;;;30.07;21.37;;;;;;;8.63;100.00;97170.25;5035070;28;20183;-67
2022/04/27 05:40:06;;;;;;;33.10;20.63;;;;;;;8.82;100.00;97175.59;5017188;28;20630;-67
2022/04/27 05:42:31;;;;;;;30.57;20.43;;;;;;;8.94;100.00;97176.56;5034838;28;20217;-68
2022/04/27 05:44:57;;;;;;;32.77;20.93;;;;;;;8.62;100.00;97176.47;5034779;28;20219;-68
2022/04/27 05:47:23;;;;;;;31.13;22.07;;;;;;;8.61;100.00;97182.69;5034112;28;20198;-67
2022/04/27 05:49:52;;;;;;;29.40;20.70;;;;;;;8.68;100.00;97185.31;5034861;28;20248;-67
2022/04/27 05:52:21;;;;;;;29.87;21.20;;;;;;;8.72;100.00;97189.09;5034855;28;20672;-68
2022/04/27 05:54:47;;;;;;;25.47;19.60;;;;;;;9.01;100.00;97195.66;5034402;28;20253;-68
2022/04/27 05:57:13;;;;;;;24.00;18.13;;;;;;;9.46;100.00;97197.28;5016813;28;20186;-68
2022/04/27 05:59:38;;;;;;;27.03;19.33;;;;;;;9.73;100.00;97199.75;5034880;28;20707;-68
2022/04/27 06:02:04;;;;;;;29.03;20.43;;;;;;;9.75;100.00;97206.38;5034527;28;20273;-68
2022/04/27 06:04:29;;;;;;;24.23;18.53;;;;;;;9.44;100.00;97198.50;5016305;28;20233;-67
2022/04/27 06:06:54;;;;;;;24.40;17.43;;;;;;;9.98;100.00;97197.97;5034110;28;20178;-68
2022/04/27 06:09:20;;;;;;;23.87;17.43;;;;;;;9.49;100.00;97202.09;5034117;28;20190;-68
2022/04/27 06:11:45;;;;;;;24.07;17.40;;;;;;;9.55;100.00;97210.91;5034149;28;20548;-69
2022/04/27 06:14:10;;;;;;;24.40;17.43;;;;;;;9.39;100.00;97204.38;5033867;28;20203;-68
2022/04/27 06:16:36;;;;;;;25.60;18.23;;;;;;;10.07;100.00;97201.94;5033959;28;20222;-68
2022/04/27 06:19:03;;;;;;;22.17;17.20;;;;;;;10.12;100.00;97204.72;5034447;28;20639;-67
2022/04/27 06:21:31;;;;;;;21.87;16.13;;;;;;;10.07;100.00;97207.19;5033343;28;20183;-68
2022/04/27 06:23:58;;;;;;;21.67;16.23;;;;;;;10.22;100.00;97209.50;5033919;28;20594;-68
2022/04/27 06:26:23;;;;;;;26.50;15.37;;;;;;;10.13;99.67;97214.19;5034010;28;20174;-67
2022/04/27 06:28:49;;;;;;;22.00;15.83;;;;;;;9.86;100.00;97218.00;5034219;28;20534;-68
2022/04/27 06:31:14;;;;;;;24.17;16.17;;;;;;;9.70;100.00;97218.47;5033576;28;20191;-68
2022/04/27 06:33:40;;;;;;;23.83;15.60;;;;;;;9.84;100.00;97223.44;5016378;28;20221;-68
2022/04/27 06:36:05;;;;;;;24.23;16.17;;;;;;;9.86;100.00;97221.41;5033955;28;20289;-67
2022/04/27 06:38:30;;;;;;;22.23;16.13;;;;;;;9.90;100.00;97227.03;5033846;28;20182;-68
2022/04/27 06:40:56;;;;;;;22.20;14.60;;;;;;;10.13;98.82;97219.44;5033171;28;20187;-68
2022/04/27 06:43:21;;;;;;;21.73;15.40;;;;;;;9.90;100.00;97227.03;5033274;28;20187;-68
2022/04/27 06:45:47;;;;;;;18.73;14.50;;;;;;;10.08;100.00;97234.19;5032855;28;20194;-67
2022/04/27 06:48:12;;;;;;;19.03;14.30;;;;;;;10.11;100.00;97233.75;5033063;28;20210;-68
2022/04/27 06:50:38;;;;;;;20.10;15.57;;;;;;;10.21;100.00;97234.91;5014855;28;20533;-67
2022/04/27 06:53:04;;;;;;;23.17;15.47;;;;;;;9.80;100.00;97245.03;5033872;28;20680;-67
2022/04/27 06:55:30;;;;;;;24.50;16.70;;;;;;;9.40;100.00;97241.78;5033489;28;20245;-73
2022/04/27 06:57:56;;;;;;;22.90;16.67;;;;;;;9.50;100.00;97247.38;5015568;28;20241;-67
2022/04/27 07:00:22;;;;;;;25.27;17.20;;;;;;;9.66;100.00;97254.75;5033195;28;20684;-69
2022/04/27 07:02:47;;;;;;;23.33;17.10;;;;;;;9.64;100.00;97259.38;5013265;28;20191;-68
2022/04/27 07:05:17;;;;;;;23.30;16.87;;;;;;;9.40;100.00;97258.28;5020463;28;20218;-68
2022/04/27 07:07:46;;;;;;;25.73;17.23;;;;;;;9.31;100.00;97272.59;5026555;28;20183;-68
2022/04/27 07:10:13;;;;;;;25.63;17.57;;;;;;;9.03;100.00;97270.25;5029683;28;20329;-67
2022/04/27 07:12:38;;;;;;;23.10;17.43;;;;;;;9.15;100.00;97273.03;5032255;28;20175;-68
2022/04/27 07:15:05;;;;;;;26.03;18.40;;;;;;;9.07;100.00;97270.66;5032530;28;20217;-68
2022/04/27 07:17:31;;;;;;;24.70;18.47;;;;;;;9.19;100.00;97269.81;5032990;28;20213;-67
2022/04/27 07:19:56;;;;;;;23.43;17.90;;;;;;;9.45;100.00;97275.97;5032830;28;20607;-68
2022/04/27 07:22:22;;;;;;;25.43;18.37;;;;;;;9.27;100.00;97284.50;5032561;28;20219;-68
2022/04/27 07:24:49;;;;;;;25.27;19.03;;;;;;;9.32;100.00;97284.66;5032568;28;20265;-67
2022/04/27 07:27:14;;;;;;;29.43;18.97;;;;;;;9.35;100.00;97284.28;5032234;28;20675;-68
2022/04/27 07:29:40;;;;;;;25.33;18.50;;;;;;;9.29;100.00;97284.28;5031817;28;20190;-68
2022/04/27 07:32:06;;;;;;;22.77;18.73;;;;;;;9.07;100.00;97291.59;5029517;28;20237;-67
2022/04/27 07:34:31;;;;;;;25.47;18.43;;;;;;;9.12;100.00;97300.44;5032764;28;20206;-67
2022/04/27 07:36:58;;;;;;;22.10;17.77;;;;;;;9.15;100.00;97288.75;5032147;28;20183;-68
2022/04/27 07:39:24;;;;;;;26.07;18.93;;;;;;;9.38;100.00;97299.53;5032466;28;20178;-68
2022/04/27 07:41:49;;;;;;;25.20;18.67;;;;;;;9.67;100.00;97290.38;5032344;28;20641;-69
2022/04/27 07:44:15;;;;;;;21.53;17.50;;;;;;;9.53;100.00;97297.47;5014241;28;20193;-67
2022/04/27 07:46:40;;;;;;;20.07;16.20;;;;;;;9.73;100.00;97294.00;5032241;28;20270;-67
2022/04/27 07:49:06;;;;;;;23.27;15.53;;;;;;;10.03;100.00;97303.69;5032555;28;20209;-67
2022/04/27 07:51:31;;;;;;;19.30;14.23;;;;;;;10.39;100.00;97303.09;5032402;28;20232;-67
2022/04/27 07:53:57;;;;;;;20.50;13.60;;;;;;;10.60;97.26;97309.00;5030578;28;20271;-68
2022/04/27 07:56:22;;;;;;;19.63;12.47;;;;;;;10.63;94.08;97316.44;5032262;28;20186;-67
2022/04/27 07:58:47;;;;;;;15.53;12.20;;;;;;;10.63;95.83;97321.69;5032573;28;20190;-68
2022/04/27 08:01:13;;;;;;;19.50;11.80;;;;;;;10.32;97.20;97320.69;5031454;28;20273;-68
2022/04/27 08:03:38;;;;;;;16.43;12.87;;;;;;;10.05;98.71;97318.38;5032003;28;20218;-67
2022/04/27 08:06:04;;;;;;;15.70;11.93;;;;;;;10.11;97.57;97328.84;5032546;28;20186;-67
2022/04/27 08:08:30;;;;;;;14.03;11.10;;;;;;;10.19;97.40;97327.81;5032838;28;20267;-68
2022/04/27 08:10:56;;;;;;;16.40;12.23;;;;;;;10.22;96.56;97325.56;5036387;28;20731;-68
2022/04/27 08:13:22;;;;;;;17.80;10.97;;;;;;;10.47;95.92;97327.44;5035929;28;20258;-68
2022/04/27 08:15:47;;;;;;;16.03;11.53;;;;;;;10.40;95.94;97330.91;5035911;28;20198;-68
2022/04/27 08:18:13;;;;;;;14.53;11.47;;;;;;;10.54;95.61;97329.00;5035878;28;20313;-68
2022/04/27 08:23:32;;;;;;;16.10;11.07;;;;;;;11.10;92.18;97328.94;5036129;28;21002;-69
2022/04/27 08:26:00;;;;;;;14.43;11.70;;;;;;;11.29;90.39;97335.03;5017316;28;20183;-68
2022/04/27 08:28:27;;;;;;;13.10;10.97;;;;;;;11.03;90.35;97338.72;5035905;28;20198;-67
2022/04/27 08:30:53;;;;;;;17.33;11.03;;;;;;;10.97;90.30;97350.06;5035217;28;20196;-68
2022/04/27 08:33:19;;;;;;;16.10;11.23;;;;;;;10.63;92.94;97345.28;5036269;28;20183;-67
2022/04/27 08:35:45;;;;;;;14.33;11.50;;;;;;;11.09;91.58;97353.56;5036085;28;20209;-67
2022/04/27 08:38:11;;;;;;;15.03;11.23;;;;;;;11.12;88.41;97347.91;5018228;28;20194;-67
2022/04/27 08:40:41;;;;;;;14.70;11.23;;;;;;;11.01;89.88;97347.78;5035402;28;20532;-69
2022/04/27 08:43:09;;;;;;;16.70;11.03;;;;;;;11.49;88.33;97347.94;5034811;28;20556;-67
2022/04/27 08:45:35;;;;;;;14.30;10.93;;;;;;;11.32;87.27;97360.81;5035492;28;20190;-67
2022/04/27 08:48:01;;;;;;;16.63;10.37;;;;;;;11.92;83.96;97348.69;5018144;28;20210;-68
2022/04/27 08:50:27;;;;;;;15.63;10.17;;;;;;;11.99;83.28;97341.50;5035243;28;20174;-67
2022/04/27 08:52:54;;;;;;;12.70;9.67;;;;;;;12.26;79.73;97351.69;5035461;28;20273;-68
2022/04/27 08:55:20;;;;;;;11.10;9.33;;;;;;;12.20;80.15;97356.03;5035085;28;20317;-67
2022/04/27 08:57:46;;;;;;;12.30;9.80;;;;;;;11.88;80.60;97360.66;5035541;28;20571;-67
2022/04/27 09:00:13;;;;;;;12.73;9.50;;;;;;;12.20;79.30;97358.66;5035479;28;20228;-67
2022/04/27 09:02:39;;;;;;;11.63;9.33;;;;;;;12.60;77.38;97358.06;5017905;28;20269;-67
2022/04/27 09:05:05;;;;;;;13.03;8.80;;;;;;;12.40;76.81;97358.38;5035106;28;20642;-67
2022/04/27 09:07:40;;;;;;;10.90;8.87;;;;;;;12.52;77.09;97353.94;5035416;28;20649;-67
2022/04/27 09:10:11;;;;;;;10.13;8.77;;;;;;;13.05;76.45;97367.06;5034961;28;20182;-67
2022/04/27 09:12:43;;;;;;;10.97;8.37;;;;;;;12.94;75.46;97357.34;5023417;28;20380;-67
2022/04/27 09:15:09;;;;;;;10.17;8.63;;;;;;;12.58;76.53;97362.78;5034789;28;20238;-67
2022/04/27 09:23:21;;;;;;;9.93;8.60;;;;;;;12.91;75.10;97360.44;5035183;28;20668;-67
2022/04/27 09:25:49;;;;;;;9.37;8.03;;;;;;;12.68;76.13;97363.03;5016822;28;20209;-67
2022/04/27 09:28:14;;;;;;;9.70;8.07;;;;;;;12.65;76.67;97366.88;5017122;28;20871;-68
2022/04/27 09:30:43;;;;;;;8.53;6.87;;;;;;;12.58;77.62;97362.78;5033523;28;20186;-67
2022/04/27 09:33:08;;;;;;;11.20;7.03;;;;;;;12.15;79.43;97360.34;5034965;28;20179;-67
2022/04/27 09:35:35;;;;;;;9.87;7.60;;;;;;;12.20;79.12;97360.47;5034304;28;20692;-68
2022/04/27 09:38:18;;;;;;;10.43;7.50;;;;;;;12.25;78.98;97364.03;5017087;28;20236;-67
2022/04/27 09:40:49;;;;;;;8.43;7.07;;;;;;;11.88;79.94;97365.09;5035014;28;20193;-67
2022/04/27 09:43:15;;;;;;;10.40;7.27;;;;;;;12.30;78.45;97371.25;5034263;28;20225;-67
2022/04/27 09:45:44;;;;;;;8.43;6.90;;;;;;;12.54;77.00;97362.41;5033923;28;20645;-67
2022/04/27 09:48:17;;;;;;;8.67;7.30;;;;;;;12.69;75.92;97360.19;5034301;28;20193;-67
2022/04/27 09:50:52;;;;;;;9.03;7.07;;;;;;;13.64;72.34;97360.00;5034844;28;20621;-67
2022/04/27 09:53:19;;;;;;;7.57;6.60;;;;;;;13.79;72.12;97370.06;5034514;28;20182;-67
2022/04/27 09:55:47;;;;;;;6.43;5.77;;;;;;;13.93;70.33;97366.91;5034002;28;20207;-68
2022/04/27 09:58:16;;;;;;;7.73;6.30;;;;;;;13.88;70.70;97360.75;5034581;28;20187;-68
2022/04/27 10:00:43;;;;;;;6.67;5.53;;;;;;;14.27;69.30;97365.22;5034228;28;20179;-67
2022/04/27 10:03:18;;;;;;;7.23;6.07;;;;;;;14.41;68.45;97369.22;5034131;28;20182;-67
2022/04/27 10:05:45;;;;;;;7.37;6.50;;;;;;;14.06;69.56;97366.66;5016428;28;20213;-68
2022/04/27 10:08:10;;;;;;;10.47;6.20;;;;;;;14.51;68.09;97365.94;5016606;28;20190;-67
2022/04/27 10:10:41;;;;;;;8.00;6.40;;;;;;;13.77;69.72;97369.47;5034097;28;20194;-69
2022/04/27 10:13:12;;;;;;;7.57;6.80;;;;;;;13.81;68.24;97362.72;5033179;28;20175;-68
2022/04/27 10:15:46;;;;;;;9.80;6.87;;;;;;;13.91;66.40;97366.38;5033803;28;20268;-68
2022/04/27 10:18:16;;;;;;;7.20;5.60;;;;;;;14.30;65.77;97370.03;5033706;28;20649;-69
2022/04/27 10:20:42;;;;;;;6.77;5.97;;;;;;;14.13;66.66;97379.72;5034003;28;20198;-69
2022/04/27 10:23:33;;;;;;;6.83;4.70;;;;;;;13.73;64.71;97372.59;5033935;28;20185;-69
2022/04/27 10:26:12;;;;;;;5.20;3.93;;;;;;;13.50;64.85;97374.44;5034385;28;20201;-69
2022/04/27 10:28:42;;;;;;;7.93;3.73;;;;;;;13.78;64.17;97373.72;5016327;28;20523;-69
2022/04/27 10:31:08;;;;;;;4.27;3.87;;;;;;;13.32;64.92;97372.72;5033272;28;20191;-69
2022/04/27 10:33:50;;;;;;;7.10;4.27;;;;;;;13.12;66.33;97374.91;5014971;28;20189;-69
2022/04/27 10:36:22;;;;;;;4.83;4.00;;;;;;;12.93;68.05;97376.78;5033689;28;20217;-69
2022/04/27 10:39:09;;;;;;;4.63;4.23;;;;;;;13.26;66.29;97365.78;5033361;28;20178;-69
2022/04/27 10:41:34;;;;;;;8.47;4.10;;;;;;;13.05;66.31;97374.97;5028339;28;20277;-69
2022/04/27 10:44:00;;;;;;;4.73;4.10;;;;;;;12.96;67.07;97375.53;5032913;28;20226;-69
2022/04/27 10:46:38;;;;;;;9.20;6.03;;;;;;;12.88;68.65;97374.03;5033620;28;20545;-69
2022/04/27 10:49:22;;;;;;;15.90;8.57;;;;;;;12.94;67.94;97373.13;5016778;28;20178;-69
2022/04/27 10:52:03;;;;;;;9.80;6.07;;;;;;;13.14;66.30;97378.13;5032887;28;20595;-69
2022/04/27 10:54:31;;;;;;;19.20;9.33;;;;;;;12.94;67.82;97381.03;5015468;28;20198;-70
2022/04/27 10:57:16;;;;;;;12.27;6.67;;;;;;;13.28;67.40;97374.22;5032301;28;20537;-69
2022/04/27 10:59:49;;;;;;;4.10;3.40;;;;;;;13.16;67.21;97383.94;5019088;28;20194;-68
2022/04/27 11:02:41;;;;;;;3.60;3.30;;;;;;;13.38;67.65;97374.44;5032926;28;20706;-69
2022/04/27 11:05:13;;;;;;;4.03;3.63;;;;;;;13.83;65.38;97385.16;5032898;28;20242;-69
2022/04/27 11:07:41;;;;;;;3.50;3.20;;;;;;;14.05;64.24;97383.50;5015609;28;20208;-69
2022/04/27 11:10:11;;;;;;;3.80;3.50;;;;;;;13.80;65.66;97387.47;5032970;28;20252;-69
2022/04/27 11:12:38;;;;;;;3.50;3.20;;;;;;;13.02;67.56;97393.06;5033384;28;20236;-69
2022/04/27 11:15:08;;;;;;;4.57;3.77;;;;;;;12.57;67.20;97390.91;5032681;28;20707;-69
2022/04/27 11:17:34;;;;;;;4.60;4.20;;;;;;;12.51;67.83;97381.28;5033065;28;20179;-70
2022/04/27 11:20:00;;;;;;;3.80;3.50;;;;;;;13.24;66.04;97387.06;5033048;28;20560;-69
2022/04/27 11:22:26;;;;;;;4.30;3.90;;;;;;;12.43;67.30;97385.00;5032492;28;20191;-69
2022/04/27 11:24:53;;;;;;;4.30;3.73;;;;;;;12.32;68.26;97390.22;5032796;28;20191;-69
2022/04/27 11:27:29;;;;;;;4.50;4.10;;;;;;;12.34;68.25;97394.25;5031377;28;20186;-69
2022/04/27 11:29:55;;;;;;;4.30;3.90;;;;;;;12.47;68.26;97386.19;5032570;28;20190;-69
2022/04/27 11:32:21;;;;;;;4.73;4.37;;;;;;;12.49;68.12;97386.75;5015165;28;20198;-69
2022/04/27 11:34:48;;;;;;;5.40;4.03;;;;;;;12.44;68.88;97391.88;5032791;28;20327;-68
2022/04/27 11:37:18;;;;;;;4.20;3.80;;;;;;;12.65;68.65;97385.31;5031854;28;20194;-69